Time;durP1;ratioP1;P1;durP2;ratioP2;P2;SDS_P1;SDS_P2;PMS_P1;PMS_P2;Temp;Humidity;BMP_temperature;BMP_pressure;BME280_temperature;BME280_humidity;BME280_pressure;Samples;Min_cycle;Max_cycle;Signal;HPM_P1;HPM_P2
2022/05/21 00:02:17;;;;;;;18.77;9.88;;;;;;;;;;5019774;28;88168;-75
2022/05/21 00:04:43;;;;;;;11.85;8.60;;;;;;;;;;5013823;28;88011;-75
2022/05/21 00:07:10;;;;;;;20.00;9.38;;;;;;;;;;5002683;28;88602;-75
2022/05/21 00:09:37;;;;;;;13.98;8.85;;;;;;;;;;5001739;28;89752;-75
2022/05/21 00:12:04;;;;;;;17.60;7.70;;;;;;;;;;5019897;28;91407;-75
2022/05/21 00:14:31;;;;;;;11.73;8.20;;;;;;;;;;5020226;28;89149;-74
2022/05/21 00:16:57;;;;;;;17.27;8.98;;;;;;;;;;5000518;28;88026;-74
2022/05/21 00:19:23;;;;;;;13.68;8.57;;;;;;;;;;5018475;28;89079;-74
2022/05/21 00:21:49;;;;;;;11.73;9.23;;;;;;;;;;5019063;28;89016;-74
2022/05/21 00:24:16;;;;;;;14.73;8.82;;;;;;;;;;5000821;28;88203;-74
2022/05/21 00:26:42;;;;;;;18.02;10.40;;;;;;;;;;5019916;28;88935;-75
2022/05/21 00:29:08;;;;;;;16.50;9.85;;;;;;;;;;5014238;28;89135;-75
2022/05/21 00:31:36;;;;;;;20.13;10.27;;;;;;;;;;5011245;28;90043;-75
2022/05/21 00:34:02;;;;;;;17.25;9.85;;;;;;;;;;5014085;28;89511;-74
2022/05/21 00:36:29;;;;;;;12.57;9.65;;;;;;;;;;5021483;28;91853;-74
2022/05/21 00:38:56;;;;;;;13.93;9.70;;;;;;;;;;5018016;28;88709;-74
2022/05/21 00:41:22;;;;;;;14.73;9.65;;;;;;;;;;4999972;28;88833;-75
2022/05/21 00:43:48;;;;;;;16.52;9.35;;;;;;;;;;5018359;28;87996;-75
2022/05/21 00:46:20;;;;;;;18.13;9.55;;;;;;;;;;5017803;28;88961;-75
2022/05/21 00:48:51;;;;;;;20.48;9.98;;;;;;;;;;5000650;28;89061;-74
2022/05/21 00:51:21;;;;;;;18.48;9.13;;;;;;;;;;5015423;28;89073;-75
2022/05/21 00:53:49;;;;;;;13.75;8.73;;;;;;;;;;4999702;28;88569;-75
2022/05/21 00:56:16;;;;;;;19.27;8.95;;;;;;;;;;5001371;28;88721;-75
2022/05/21 01:01:30;;;;;;;19.60;8.73;;;;;;;;;;5018880;28;88829;-75
2022/05/21 01:03:56;;;;;;;24.88;8.75;;;;;;;;;;4998358;28;88301;-75
2022/05/21 01:06:23;;;;;;;20.77;8.50;;;;;;;;;;5018584;28;88749;-75
2022/05/21 01:08:49;;;;;;;16.90;8.20;;;;;;;;;;5018095;28;89326;-75
2022/05/21 01:11:17;;;;;;;19.40;8.02;;;;;;;;;;5001527;28;87996;-75
2022/05/21 01:13:45;;;;;;;17.08;8.23;;;;;;;;;;4996497;28;89763;-75
2022/05/21 01:16:13;;;;;;;18.67;8.18;;;;;;;;;;5022012;28;88123;-75
2022/05/21 01:18:39;;;;;;;14.55;7.82;;;;;;;;;;5000260;28;88330;-74
2022/05/21 01:21:06;;;;;;;17.85;8.20;;;;;;;;;;5020906;28;88078;-74
2022/05/21 01:23:33;;;;;;;15.30;7.82;;;;;;;;;;5013518;28;88821;-74
2022/05/21 01:26:01;;;;;;;19.02;8.30;;;;;;;;;;5010716;28;90590;-74
2022/05/21 01:28:30;;;;;;;20.48;8.60;;;;;;;;;;5019118;28;88324;-74
2022/05/21 01:30:58;;;;;;;14.15;7.65;;;;;;;;;;5015112;28;88332;-74
2022/05/21 01:33:30;;;;;;;17.60;8.68;;;;;;;;;;4998291;28;88868;-75
2022/05/21 01:35:58;;;;;;;19.98;8.55;;;;;;;;;;5015201;28;89744;-74
2022/05/21 01:38:25;;;;;;;16.17;7.20;;;;;;;;;;5015427;28;88068;-74
2022/05/21 01:40:51;;;;;;;15.18;7.40;;;;;;;;;;5021737;28;88717;-74
2022/05/21 01:46:03;;;;;;;24.88;7.97;;;;;;;;;;5016998;28;89118;-75
2022/05/21 01:48:30;;;;;;;21.40;8.10;;;;;;;;;;4999155;28;89867;-74
2022/05/21 01:51:03;;;;;;;24.08;7.93;;;;;;;;;;4995003;28;88020;-75
2022/05/21 01:53:29;;;;;;;20.60;7.90;;;;;;;;;;4998137;28;89013;-75
2022/05/21 01:55:57;;;;;;;17.50;7.90;;;;;;;;;;4999410;28;90679;-75
2022/05/21 01:58:23;;;;;;;18.75;7.63;;;;;;;;;;5017918;28;88047;-75
2022/05/21 02:00:49;;;;;;;22.52;8.30;;;;;;;;;;4996410;28;88953;-75
2022/05/21 02:03:16;;;;;;;18.80;7.65;;;;;;;;;;5016132;28;88747;-75
2022/05/21 02:05:44;;;;;;;23.80;7.60;;;;;;;;;;5016951;28;90634;-75
2022/05/21 02:08:12;;;;;;;20.23;7.97;;;;;;;;;;5007547;28;90011;-75
2022/05/21 02:10:39;;;;;;;22.90;8.27;;;;;;;;;;4997935;28;88146;-74
2022/05/21 02:13:05;;;;;;;23.05;7.90;;;;;;;;;;5010337;28;90443;-74
2022/05/21 02:15:31;;;;;;;20.73;8.68;;;;;;;;;;5018616;28;89183;-74
2022/05/21 02:17:58;;;;;;;21.10;8.48;;;;;;;;;;4999897;28;88149;-75
2022/05/21 02:20:24;;;;;;;18.60;7.47;;;;;;;;;;4998083;28;89476;-74
2022/05/21 02:22:51;;;;;;;25.33;7.55;;;;;;;;;;5016007;28;89236;-75
2022/05/21 02:25:17;;;;;;;23.52;7.47;;;;;;;;;;4985644;28;88023;-74
2022/05/21 02:27:43;;;;;;;21.08;7.70;;;;;;;;;;5017461;28;89176;-74
2022/05/21 02:30:10;;;;;;;21.33;8.05;;;;;;;;;;5015604;28;87534;-75
2022/05/21 02:32:36;;;;;;;20.15;8.02;;;;;;;;;;5015415;28;87938;-74
2022/05/21 02:35:03;;;;;;;24.00;7.90;;;;;;;;;;5014874;28;89154;-75
2022/05/21 02:40:14;;;;;;;19.10;7.85;;;;;;;;;;5016446;28;88144;-74
2022/05/21 02:42:44;;;;;;;25.23;8.10;;;;;;;;;;4999587;28;89550;-74
2022/05/21 02:45:11;;;;;;;25.10;8.55;;;;;;;;;;5015757;28;88064;-75
2022/05/21 02:47:38;;;;;;;21.83;7.78;;;;;;;;;;5017224;28;88909;-75
2022/05/21 02:50:05;;;;;;;20.08;7.13;;;;;;;;;;5016024;28;87961;-75
2022/05/21 02:52:31;;;;;;;27.08;8.70;;;;;;;;;;5015366;28;88595;-77
2022/05/21 02:54:59;;;;;;;19.38;7.45;;;;;;;;;;5017177;28;88399;-74
2022/05/21 02:57:25;;;;;;;24.23;8.27;;;;;;;;;;5016661;28;87979;-74
2022/05/21 02:59:52;;;;;;;18.77;7.03;;;;;;;;;;4998197;28;88785;-74
2022/05/21 03:02:18;;;;;;;32.42;8.27;;;;;;;;;;5016327;28;89874;-75
2022/05/21 03:04:45;;;;;;;26.17;8.20;;;;;;;;;;5015715;28;88131;-74
2022/05/21 03:07:12;;;;;;;27.52;9.05;;;;;;;;;;5015007;28;89756;-75
2022/05/21 03:12:23;;;;;;;23.25;7.80;;;;;;;;;;5016377;28;88882;-74
2022/05/21 03:14:49;;;;;;;29.60;8.55;;;;;;;;;;5000304;28;88904;-75
2022/05/21 03:17:16;;;;;;;26.70;7.47;;;;;;;;;;5018174;28;88302;-74
2022/05/21 03:19:42;;;;;;;21.15;7.35;;;;;;;;;;5001545;28;88559;-74
2022/05/21 03:22:08;;;;;;;23.33;7.90;;;;;;;;;;5019762;28;89257;-75
2022/05/21 03:24:35;;;;;;;28.25;7.75;;;;;;;;;;5019822;28;87965;-75
2022/05/21 03:27:01;;;;;;;23.88;6.93;;;;;;;;;;4995062;28;88907;-75
2022/05/21 03:29:27;;;;;;;30.27;7.07;;;;;;;;;;4984081;28;89405;-75
2022/05/21 03:31:54;;;;;;;21.23;6.43;;;;;;;;;;5003370;28;88120;-74
2022/05/21 03:34:20;;;;;;;36.05;8.23;;;;;;;;;;5013068;28;88992;-75
2022/05/21 03:36:46;;;;;;;27.63;6.03;;;;;;;;;;5000832;28;89892;-75
2022/05/21 03:39:13;;;;;;;26.70;6.20;;;;;;;;;;5019421;28;88655;-75
2022/05/21 03:41:39;;;;;;;25.40;5.47;;;;;;;;;;5019860;28;89127;-75
2022/05/21 03:44:05;;;;;;;40.97;6.35;;;;;;;;;;5018482;28;87793;-74
2022/05/21 03:46:32;;;;;;;26.52;4.95;;;;;;;;;;5019129;28;88606;-74
2022/05/21 03:48:59;;;;;;;26.33;5.20;;;;;;;;;;4999078;28;89060;-74
2022/05/21 03:51:25;;;;;;;24.15;4.22;;;;;;;;;;5003546;28;88825;-75
2022/05/21 03:53:51;;;;;;;30.85;5.60;;;;;;;;;;5002034;28;88741;-74
2022/05/21 03:56:18;;;;;;;28.38;5.00;;;;;;;;;;5020351;28;89223;-75
2022/05/21 03:58:44;;;;;;;24.38;4.93;;;;;;;;;;5017854;28;88917;-75
2022/05/21 04:01:10;;;;;;;23.90;4.38;;;;;;;;;;4982033;28;88689;-75
2022/05/21 04:03:37;;;;;;;24.27;4.82;;;;;;;;;;5017282;28;88354;-75
2022/05/21 04:06:03;;;;;;;30.23;4.57;;;;;;;;;;5001778;28;87868;-75
2022/05/21 04:08:29;;;;;;;28.02;4.68;;;;;;;;;;5020887;28;88281;-75
2022/05/21 04:10:55;;;;;;;25.38;4.40;;;;;;;;;;5018354;28;88036;-75
2022/05/21 04:13:22;;;;;;;21.30;4.97;;;;;;;;;;5000620;28;89230;-75
2022/05/21 04:15:48;;;;;;;30.50;5.93;;;;;;;;;;5006773;28;88762;-75
2022/05/21 04:18:17;;;;;;;21.58;3.95;;;;;;;;;;5009884;28;89476;-75
2022/05/21 04:20:43;;;;;;;27.17;5.15;;;;;;;;;;5019102;28;89186;-75
2022/05/21 04:23:09;;;;;;;31.77;4.90;;;;;;;;;;4999794;28;88886;-75
2022/05/21 04:25:36;;;;;;;27.23;4.60;;;;;;;;;;4985064;28;91921;-75
2022/05/21 04:28:03;;;;;;;29.00;4.10;;;;;;;;;;5019687;28;89856;-75
2022/05/21 04:30:30;;;;;;;27.23;4.03;;;;;;;;;;5002105;28;88957;-75
2022/05/21 04:32:57;;;;;;;26.20;4.05;;;;;;;;;;5010920;28;88476;-75
2022/05/21 04:35:24;;;;;;;23.73;4.00;;;;;;;;;;5003599;28;89661;-75
2022/05/21 04:37:51;;;;;;;25.02;3.78;;;;;;;;;;5018649;28;88852;-76
2022/05/21 04:40:19;;;;;;;26.40;4.45;;;;;;;;;;5017873;28;91462;-75
2022/05/21 04:42:46;;;;;;;28.90;3.80;;;;;;;;;;5018915;28;90287;-75
2022/05/21 04:45:13;;;;;;;30.45;4.85;;;;;;;;;;5018481;28;88412;-75
2022/05/21 04:47:39;;;;;;;17.63;3.30;;;;;;;;;;5000426;28;91502;-75
2022/05/21 04:50:10;;;;;;;25.55;4.85;;;;;;;;;;5019276;28;88242;-75
2022/05/21 04:52:36;;;;;;;30.35;4.18;;;;;;;;;;5015986;28;88876;-74
2022/05/21 04:55:04;;;;;;;30.15;4.15;;;;;;;;;;4998219;28;92337;-74
2022/05/21 04:57:31;;;;;;;24.90;3.58;;;;;;;;;;5002791;28;88533;-76
2022/05/21 05:00:00;;;;;;;18.70;3.13;;;;;;;;;;4985498;28;89251;-75
2022/05/21 05:02:27;;;;;;;23.98;3.95;;;;;;;;;;5017825;28;88046;-75
2022/05/21 05:04:53;;;;;;;31.40;4.30;;;;;;;;;;5018291;28;88833;-75
2022/05/21 05:07:22;;;;;;;22.05;3.83;;;;;;;;;;4997962;28;89016;-74
2022/05/21 05:09:48;;;;;;;20.95;3.80;;;;;;;;;;5018493;28;89342;-75
2022/05/21 05:12:16;;;;;;;20.13;3.42;;;;;;;;;;5001667;28;89825;-76
2022/05/21 05:14:42;;;;;;;21.35;4.20;;;;;;;;;;5002601;28;88869;-75
2022/05/21 05:17:11;;;;;;;23.20;4.45;;;;;;;;;;5019251;28;88152;-75
2022/05/21 05:19:37;;;;;;;20.48;3.13;;;;;;;;;;4997746;28;88776;-76
2022/05/21 05:22:04;;;;;;;21.85;3.97;;;;;;;;;;5012853;28;87939;-76
2022/05/21 05:24:30;;;;;;;21.35;4.05;;;;;;;;;;5008575;28;88109;-76
2022/05/21 05:26:56;;;;;;;21.35;3.90;;;;;;;;;;4996005;28;90072;-75
2022/05/21 05:29:23;;;;;;;26.70;3.50;;;;;;;;;;5003848;28;89739;-77
2022/05/21 05:31:49;;;;;;;23.00;3.60;;;;;;;;;;5012476;28;89390;-75
2022/05/21 05:34:15;;;;;;;23.92;4.13;;;;;;;;;;4998276;28;88055;-75
2022/05/21 05:36:41;;;;;;;25.52;3.17;;;;;;;;;;5017714;28;88223;-75
2022/05/21 05:39:08;;;;;;;18.73;3.25;;;;;;;;;;5017763;28;88935;-74
2022/05/21 05:41:37;;;;;;;20.02;3.33;;;;;;;;;;5007549;28;89189;-74
2022/05/21 05:44:04;;;;;;;21.65;3.33;;;;;;;;;;5000865;28;88641;-74
2022/05/21 05:46:30;;;;;;;16.98;3.35;;;;;;;;;;5015612;28;88182;-74
2022/05/21 05:48:56;;;;;;;19.90;3.42;;;;;;;;;;5018072;28;88014;-74
2022/05/21 05:51:23;;;;;;;20.88;4.00;;;;;;;;;;5017222;28;88603;-74
2022/05/21 05:53:49;;;;;;;18.27;4.10;;;;;;;;;;5013254;28;90064;-73
2022/05/21 05:56:15;;;;;;;20.90;3.65;;;;;;;;;;5017967;28;88007;-74
2022/05/21 06:01:27;;;;;;;23.13;3.78;;;;;;;;;;5020014;28;88689;-74
2022/05/21 06:03:53;;;;;;;27.35;3.72;;;;;;;;;;5017666;28;88765;-74
2022/05/21 06:06:20;;;;;;;22.48;4.82;;;;;;;;;;5015681;28;89582;-73
2022/05/21 06:08:47;;;;;;;15.50;2.90;;;;;;;;;;5016920;28;88203;-74
2022/05/21 06:11:15;;;;;;;26.38;4.30;;;;;;;;;;4999968;28;89934;-75
2022/05/21 06:13:43;;;;;;;19.27;3.47;;;;;;;;;;4999461;28;89316;-72
2022/05/21 06:16:10;;;;;;;22.10;3.63;;;;;;;;;;5019903;28;88071;-72
2022/05/21 06:18:40;;;;;;;20.70;3.72;;;;;;;;;;4998419;28;88840;-73
2022/05/21 06:21:08;;;;;;;25.70;4.00;;;;;;;;;;5000026;28;88862;-72
2022/05/21 06:23:34;;;;;;;23.00;3.80;;;;;;;;;;5019453;28;88099;-73
2022/05/21 06:26:01;;;;;;;15.20;3.42;;;;;;;;;;5016565;28;88900;-72
2022/05/21 06:28:28;;;;;;;20.90;3.85;;;;;;;;;;5016921;28;87954;-73
2022/05/21 06:30:54;;;;;;;19.08;3.40;;;;;;;;;;5012827;28;88673;-73
2022/05/21 06:33:25;;;;;;;22.55;3.83;;;;;;;;;;5015728;28;89119;-73
2022/05/21 06:36:03;;;;;;;33.13;3.50;;;;;;;;;;5017258;28;87972;-73
2022/05/21 06:38:30;;;;;;;22.42;3.83;;;;;;;;;;5011641;28;88358;-73
2022/05/21 06:40:56;;;;;;;23.30;3.47;;;;;;;;;;5015793;28;90239;-73
2022/05/21 06:43:22;;;;;;;20.48;3.33;;;;;;;;;;4999463;28;88800;-73
2022/05/21 06:45:49;;;;;;;26.80;3.80;;;;;;;;;;5019297;28;89608;-73
2022/05/21 06:48:15;;;;;;;22.20;3.38;;;;;;;;;;5015307;28;88784;-74
2022/05/21 06:50:41;;;;;;;18.27;3.55;;;;;;;;;;5000818;28;90255;-73
2022/05/21 06:53:08;;;;;;;23.88;4.40;;;;;;;;;;5018400;28;90174;-73
2022/05/21 06:55:34;;;;;;;20.65;3.42;;;;;;;;;;5003260;28;88038;-74
2022/05/21 06:58:00;;;;;;;19.55;3.30;;;;;;;;;;5019026;28;88976;-73
2022/05/21 07:00:27;;;;;;;16.77;3.08;;;;;;;;;;5020721;28;88374;-74
2022/05/21 07:02:53;;;;;;;24.05;2.97;;;;;;;;;;5001582;28;88208;-73
2022/05/21 07:08:13;;;;;;;23.25;3.72;;;;;;;;;;5020347;28;89830;-73
2022/05/21 07:10:39;;;;;;;16.33;3.45;;;;;;;;;;5003017;28;90592;-73
2022/05/21 07:13:05;;;;;;;32.53;4.70;;;;;;;;;;5019084;28;89396;-73
2022/05/21 07:15:32;;;;;;;23.15;3.40;;;;;;;;;;5003354;28;89182;-73
2022/05/21 07:18:00;;;;;;;20.50;3.53;;;;;;;;;;5019045;28;89723;-73
2022/05/21 07:20:27;;;;;;;21.05;3.58;;;;;;;;;;5018789;28;89249;-72
2022/05/21 07:22:54;;;;;;;21.65;3.53;;;;;;;;;;5016851;28;88729;-73
2022/05/21 07:25:23;;;;;;;22.05;3.70;;;;;;;;;;5020146;28;88452;-73
2022/05/21 07:27:56;;;;;;;14.68;2.80;;;;;;;;;;5002580;28;88929;-74
2022/05/21 07:30:22;;;;;;;13.93;2.92;;;;;;;;;;5006598;28;88109;-73
2022/05/21 07:32:50;;;;;;;17.23;3.30;;;;;;;;;;5001497;28;89843;-73
2022/05/21 07:35:18;;;;;;;19.65;3.42;;;;;;;;;;5017177;28;88093;-72
2022/05/21 07:37:45;;;;;;;26.30;3.85;;;;;;;;;;5019130;28;88804;-73
2022/05/21 07:40:12;;;;;;;16.05;3.40;;;;;;;;;;5019556;28;88438;-73
2022/05/21 07:42:38;;;;;;;19.35;2.85;;;;;;;;;;5019995;28;89125;-73
2022/05/21 07:45:06;;;;;;;17.00;2.83;;;;;;;;;;5018684;28;88819;-73
2022/05/21 07:47:33;;;;;;;17.73;2.78;;;;;;;;;;4999936;28;88957;-73
2022/05/21 07:49:59;;;;;;;20.80;2.70;;;;;;;;;;5020382;28;93029;-73
2022/05/21 07:52:26;;;;;;;18.83;2.92;;;;;;;;;;5003712;28;87934;-73
2022/05/21 07:54:53;;;;;;;14.80;2.30;;;;;;;;;;5019689;28;87988;-74
2022/05/21 07:57:22;;;;;;;14.63;2.25;;;;;;;;;;5017824;28;89129;-74
2022/05/21 07:59:48;;;;;;;23.08;3.85;;;;;;;;;;5019962;28;89259;-75
2022/05/21 08:02:15;;;;;;;16.52;2.72;;;;;;;;;;4996633;28;88055;-75
2022/05/21 08:04:42;;;;;;;11.02;2.05;;;;;;;;;;5020088;28;89137;-74
2022/05/21 08:07:09;;;;;;;15.70;2.25;;;;;;;;;;5018911;28;88843;-75
2022/05/21 08:09:35;;;;;;;11.05;2.78;;;;;;;;;;5001173;28;89254;-74
2022/05/21 08:12:02;;;;;;;16.73;2.97;;;;;;;;;;5003940;28;88631;-75
2022/05/21 08:14:28;;;;;;;15.75;2.47;;;;;;;;;;5015779;28;88812;-74
2022/05/21 08:16:55;;;;;;;14.77;3.15;;;;;;;;;;5014173;28;89968;-74
2022/05/21 08:19:21;;;;;;;14.77;2.50;;;;;;;;;;5000705;28;88935;-74
2022/05/21 08:21:47;;;;;;;20.98;3.13;;;;;;;;;;5015484;28;91000;-74
2022/05/21 08:27:00;;;;;;;17.88;3.17;;;;;;;;;;5016926;28;89352;-74
2022/05/21 08:29:28;;;;;;;10.85;2.50;;;;;;;;;;4993068;28;88580;-74
2022/05/21 08:31:54;;;;;;;16.67;2.90;;;;;;;;;;5017536;28;89552;-75
2022/05/21 08:34:22;;;;;;;12.68;2.70;;;;;;;;;;5004461;28;89105;-74
2022/05/21 08:36:48;;;;;;;14.77;2.60;;;;;;;;;;5015018;28;88104;-75
2022/05/21 08:39:15;;;;;;;13.32;3.35;;;;;;;;;;5001909;28;88281;-75
2022/05/21 08:41:45;;;;;;;15.68;3.55;;;;;;;;;;5001243;28;88377;-75
2022/05/21 08:44:22;;;;;;;16.80;3.35;;;;;;;;;;5017388;28;88559;-74
2022/05/21 08:47:11;;;;;;;14.48;2.92;;;;;;;;;;4997555;28;90326;-75
2022/05/21 08:49:40;;;;;;;10.30;2.75;;;;;;;;;;5015683;28;88172;-74
2022/05/21 08:52:25;;;;;;;18.58;3.80;;;;;;;;;;5019257;28;88657;-74
2022/05/21 08:54:52;;;;;;;13.27;2.55;;;;;;;;;;5019269;28;92090;-75
2022/05/21 08:57:26;;;;;;;18.67;3.30;;;;;;;;;;5001416;28;89711;-75
2022/05/21 08:59:56;;;;;;;13.63;3.17;;;;;;;;;;5000507;28;88777;-74
2022/05/21 09:02:26;;;;;;;22.02;3.20;;;;;;;;;;5018950;28;88023;-74
2022/05/21 09:04:52;;;;;;;16.38;3.10;;;;;;;;;;5000593;28;88679;-75
2022/05/21 09:07:20;;;;;;;23.45;4.38;;;;;;;;;;4999305;28;89477;-75
2022/05/21 09:09:52;;;;;;;18.60;3.17;;;;;;;;;;4996262;28;88721;-75
2022/05/21 09:12:18;;;;;;;22.70;3.22;;;;;;;;;;5002079;28;88734;-75
2022/05/21 09:14:47;;;;;;;14.13;3.13;;;;;;;;;;5017454;28;89933;-75
2022/05/21 09:17:15;;;;;;;25.88;3.53;;;;;;;;;;5002077;28;88139;-75
2022/05/21 09:19:48;;;;;;;11.57;2.28;;;;;;;;;;5002359;28;89022;-75
2022/05/21 09:22:16;;;;;;;18.65;3.67;;;;;;;;;;4998380;28;88082;-75
2022/05/21 09:25:15;;;;;;;20.92;3.03;;;;;;;;;;4994111;28;88780;-74
2022/05/21 09:27:43;;;;;;;15.93;2.95;;;;;;;;;;5016073;28;88934;-74
2022/05/21 09:30:36;;;;;;;15.15;2.55;;;;;;;;;;5016643;28;90420;-74
2022/05/21 09:33:21;;;;;;;17.92;2.90;;;;;;;;;;4996844;28;88479;-75
2022/05/21 09:35:51;;;;;;;16.17;3.60;;;;;;;;;;5017355;28;89189;-75
2022/05/21 09:38:22;;;;;;;15.40;3.53;;;;;;;;;;5017224;28;91186;-75
2022/05/21 09:40:49;;;;;;;20.17;2.85;;;;;;;;;;5018591;28;89589;-75
2022/05/21 09:46:21;;;;;;;12.32;2.58;;;;;;;;;;4954069;28;89915;-73
2022/05/21 09:48:49;;;;;;;9.30;2.40;;;;;;;;;;4955714;28;89898;-74
2022/05/21 09:51:21;;;;;;;10.93;2.72;;;;;;;;;;4955440;28;88249;-74
2022/05/21 09:53:48;;;;;;;21.33;3.63;;;;;;;;;;4956327;28;88753;-73
2022/05/21 09:56:19;;;;;;;20.67;4.15;;;;;;;;;;4955542;28;88227;-74
2022/05/21 09:58:46;;;;;;;15.70;3.15;;;;;;;;;;4954983;28;88096;-73
2022/05/21 10:01:14;;;;;;;19.33;3.60;;;;;;;;;;4956399;28;89172;-73
2022/05/21 10:03:52;;;;;;;13.75;2.47;;;;;;;;;;4954810;28;89786;-73
2022/05/21 10:06:32;;;;;;;12.95;3.38;;;;;;;;;;4956708;28;88029;-74
2022/05/21 10:11:51;;;;;;;13.07;2.72;;;;;;;;;;4955528;28;88010;-73
2022/05/21 10:14:23;;;;;;;17.77;3.15;;;;;;;;;;4954324;28;88769;-74
2022/05/21 10:16:57;;;;;;;16.38;2.90;;;;;;;;;;4955787;28;88871;-74
2022/05/21 10:19:26;;;;;;;18.15;4.40;;;;;;;;;;4956146;28;88100;-73
2022/05/21 10:22:15;;;;;;;19.98;4.35;;;;;;;;;;4985482;28;89300;-73
2022/05/21 10:25:00;;;;;;;12.97;3.70;;;;;;;;;;5013076;28;89185;-73
2022/05/21 10:27:33;;;;;;;13.25;2.60;;;;;;;;;;5002545;28;89363;-73
2022/05/21 10:30:03;;;;;;;12.02;2.40;;;;;;;;;;5016068;28;89598;-73
2022/05/21 10:32:35;;;;;;;17.85;2.97;;;;;;;;;;5018315;28;87971;-73
2022/05/21 10:35:11;;;;;;;21.83;2.58;;;;;;;;;;4998304;28;88533;-74
2022/05/21 10:38:02;;;;;;;27.70;3.70;;;;;;;;;;5017695;28;88481;-74
2022/05/21 10:40:36;;;;;;;13.20;2.60;;;;;;;;;;5005798;28;88194;-74
2022/05/21 10:43:12;;;;;;;14.73;2.58;;;;;;;;;;5014832;28;88863;-74
2022/05/21 10:46:01;;;;;;;17.08;2.72;;;;;;;;;;5013808;28;88989;-74
2022/05/21 10:48:33;;;;;;;14.70;2.60;;;;;;;;;;4955829;28;88231;-74
2022/05/21 10:51:08;;;;;;;15.90;3.08;;;;;;;;;;4942428;28;88020;-74
2022/05/21 10:53:43;;;;;;;20.35;2.95;;;;;;;;;;4930612;28;88725;-74
2022/05/21 10:56:24;;;;;;;10.60;2.17;;;;;;;;;;4954424;28;89504;-74
2022/05/21 10:59:01;;;;;;;14.18;2.55;;;;;;;;;;4923527;28;89132;-74
2022/05/21 11:01:38;;;;;;;14.15;2.70;;;;;;;;;;4935353;28;88246;-74
2022/05/21 11:04:23;;;;;;;12.65;2.35;;;;;;;;;;4954928;28;88846;-73
2022/05/21 11:07:05;;;;;;;10.80;2.72;;;;;;;;;;4937928;28;88564;-74
2022/05/21 11:09:37;;;;;;;11.25;2.15;;;;;;;;;;4954298;28;88080;-74
2022/05/21 11:12:13;;;;;;;13.52;2.63;;;;;;;;;;4938404;28;88728;-74
2022/05/21 11:14:40;;;;;;;19.20;2.97;;;;;;;;;;4956819;28;88940;-74
2022/05/21 11:17:19;;;;;;;12.93;2.42;;;;;;;;;;4954953;28;88104;-73
2022/05/21 11:20:04;;;;;;;10.50;1.63;;;;;;;;;;4952023;28;89308;-74
2022/05/21 11:22:37;;;;;;;9.25;2.17;;;;;;;;;;4941023;28;90709;-74
2022/05/21 11:25:12;;;;;;;13.98;2.60;;;;;;;;;;4971714;28;89737;-73
2022/05/21 11:27:46;;;;;;;17.50;2.83;;;;;;;;;;5017374;28;89955;-74
2022/05/21 11:30:16;;;;;;;18.52;3.22;;;;;;;;;;5014681;28;88038;-74
2022/05/21 11:38:29;;;;;;;11.15;3.00;;;;;;;;;;5021656;28;88056;-74
2022/05/21 11:43:51;;;;;;;15.38;3.30;;;;;;;;;;5019045;28;88337;-74
2022/05/21 11:46:17;;;;;;;12.75;3.00;;;;;;;;;;5020521;28;88875;-74
2022/05/21 11:48:43;;;;;;;18.50;3.05;;;;;;;;;;5001966;28;90274;-74
2022/05/21 11:51:30;;;;;;;17.67;3.45;;;;;;;;;;5018653;28;88101;-74
2022/05/21 11:53:56;;;;;;;12.57;2.58;;;;;;;;;;5007982;28;90934;-75
2022/05/21 11:56:25;;;;;;;14.90;3.10;;;;;;;;;;5016751;28;88993;-73
2022/05/21 11:58:57;;;;;;;13.65;3.05;;;;;;;;;;5017548;28;88080;-74
2022/05/21 12:01:36;;;;;;;11.68;2.60;;;;;;;;;;5019727;28;89150;-74
2022/05/21 12:04:02;;;;;;;11.70;2.70;;;;;;;;;;5017295;28;88262;-73
2022/05/21 12:06:38;;;;;;;15.25;3.05;;;;;;;;;;5000061;28;89348;-73
2022/05/21 12:09:22;;;;;;;23.90;3.20;;;;;;;;;;5016144;28;89460;-74
2022/05/21 12:11:49;;;;;;;15.55;2.53;;;;;;;;;;5019559;28;88135;-74
2022/05/21 12:14:18;;;;;;;9.13;2.03;;;;;;;;;;5000562;28;88876;-74
2022/05/21 12:16:52;;;;;;;12.15;2.72;;;;;;;;;;5022463;28;88877;-74
2022/05/21 12:19:37;;;;;;;10.70;2.35;;;;;;;;;;5018551;28;88140;-74
2022/05/21 12:22:04;;;;;;;10.50;2.08;;;;;;;;;;5001810;28;88774;-74
2022/05/21 12:24:36;;;;;;;7.85;1.55;;;;;;;;;;5019657;28;88099;-74
2022/05/21 12:27:22;;;;;;;10.90;2.13;;;;;;;;;;5019498;28;89227;-74
2022/05/21 12:29:52;;;;;;;19.85;3.38;;;;;;;;;;5018552;28;89540;-74
2022/05/21 12:32:23;;;;;;;16.10;3.22;;;;;;;;;;5019737;28;88048;-74
2022/05/21 12:35:03;;;;;;;18.55;2.80;;;;;;;;;;5017461;28;88197;-76
2022/05/21 12:37:38;;;;;;;14.87;2.77;;;;;;;;;;5018101;28;87978;-74
2022/05/21 12:40:07;;;;;;;11.48;3.13;;;;;;;;;;4998930;28;88896;-74
2022/05/21 12:42:39;;;;;;;15.02;3.53;;;;;;;;;;5000559;28;89677;-74
2022/05/21 12:45:12;;;;;;;14.80;3.08;;;;;;;;;;5020605;28;89468;-74
2022/05/21 12:47:40;;;;;;;15.05;2.58;;;;;;;;;;5001534;28;87870;-75
2022/05/21 12:50:18;;;;;;;13.50;3.22;;;;;;;;;;4999892;28;89172;-74
2022/05/21 12:52:52;;;;;;;15.98;3.60;;;;;;;;;;5017239;28;88170;-74
2022/05/21 12:55:29;;;;;;;14.07;3.50;;;;;;;;;;5000529;28;88553;-74
2022/05/21 12:57:57;;;;;;;17.38;3.35;;;;;;;;;;5020012;28;90985;-74
2022/05/21 13:00:25;;;;;;;22.73;3.28;;;;;;;;;;5018201;28;87944;-74
2022/05/21 13:02:52;;;;;;;12.63;3.15;;;;;;;;;;5019452;28;87830;-74
2022/05/21 13:05:19;;;;;;;15.25;3.13;;;;;;;;;;5017500;28;89829;-74
2022/05/21 13:07:45;;;;;;;9.32;2.80;;;;;;;;;;5018679;28;88054;-74
2022/05/21 13:10:15;;;;;;;15.75;3.30;;;;;;;;;;5018096;28;89182;-74
2022/05/21 13:12:49;;;;;;;18.45;3.33;;;;;;;;;;5016836;28;88074;-74
2022/05/21 13:15:21;;;;;;;12.70;3.35;;;;;;;;;;5016079;28;89197;-74
2022/05/21 13:17:56;;;;;;;13.32;3.25;;;;;;;;;;5016663;28;89043;-74
2022/05/21 13:20:23;;;;;;;9.23;2.53;;;;;;;;;;5017081;28;88064;-74
2022/05/21 13:23:08;;;;;;;11.90;2.50;;;;;;;;;;4999022;28;88880;-75
2022/05/21 13:25:34;;;;;;;11.93;2.30;;;;;;;;;;5018021;28;89075;-74
2022/05/21 13:28:12;;;;;;;12.60;2.53;;;;;;;;;;5017320;28;87983;-74
2022/05/21 13:30:44;;;;;;;9.93;2.80;;;;;;;;;;5020496;28;89199;-74
2022/05/21 13:33:14;;;;;;;9.15;2.30;;;;;;;;;;5000914;28;88150;-74
2022/05/21 13:35:42;;;;;;;13.40;1.90;;;;;;;;;;5015112;28;89801;-75
2022/05/21 13:38:12;;;;;;;11.35;2.58;;;;;;;;;;5000486;28;89342;-73
2022/05/21 13:40:48;;;;;;;9.52;2.00;;;;;;;;;;5016963;28;88035;-74
2022/05/21 13:43:15;;;;;;;12.50;2.03;;;;;;;;;;5018952;28;88537;-74
2022/05/21 13:45:51;;;;;;;13.98;2.60;;;;;;;;;;5015935;28;89510;-74
2022/05/21 13:48:20;;;;;;;11.90;2.08;;;;;;;;;;5009936;28;88015;-74
2022/05/21 13:50:47;;;;;;;9.65;2.15;;;;;;;;;;4992834;28;88164;-74
2022/05/21 13:53:24;;;;;;;6.63;1.92;;;;;;;;;;5011423;28;88972;-73
2022/05/21 13:55:57;;;;;;;10.35;2.20;;;;;;;;;;5014381;28;89207;-73
2022/05/21 13:58:36;;;;;;;12.48;2.58;;;;;;;;;;5000862;28;88973;-73
2022/05/21 14:01:05;;;;;;;9.95;2.60;;;;;;;;;;5012866;28;90490;-73
2022/05/21 14:03:34;;;;;;;14.95;2.58;;;;;;;;;;5015803;28;88687;-73
2022/05/21 14:06:02;;;;;;;5.88;2.22;;;;;;;;;;5017815;28;88803;-73
2022/05/21 14:08:34;;;;;;;18.42;2.83;;;;;;;;;;4999795;28;88139;-73
2022/05/21 14:11:00;;;;;;;9.48;1.88;;;;;;;;;;5017407;28;88748;-73
2022/05/21 14:13:29;;;;;;;13.55;2.67;;;;;;;;;;5016454;28;88425;-73
2022/05/21 14:15:56;;;;;;;8.82;2.53;;;;;;;;;;5021227;28;88430;-73
2022/05/21 14:18:29;;;;;;;10.75;2.30;;;;;;;;;;5017653;28;88784;-73
2022/05/21 14:20:56;;;;;;;9.25;2.60;;;;;;;;;;5013916;28;90566;-73
2022/05/21 14:23:22;;;;;;;10.95;2.20;;;;;;;;;;5015753;28;89461;-73
2022/05/21 14:26:19;;;;;;;9.45;2.97;;;;;;;;;;5017096;28;88636;-73
2022/05/21 14:28:46;;;;;;;12.38;2.42;;;;;;;;;;4999505;28;89851;-71
2022/05/21 14:31:32;;;;;;;10.65;1.85;;;;;;;;;;5015275;28;89133;-71
2022/05/21 14:34:03;;;;;;;9.93;2.50;;;;;;;;;;5017537;28;89065;-71
2022/05/21 14:36:35;;;;;;;7.00;2.03;;;;;;;;;;5018025;28;89699;-71
2022/05/21 14:39:01;;;;;;;15.73;2.45;;;;;;;;;;4996162;28;88605;-71
2022/05/21 14:41:33;;;;;;;10.38;2.70;;;;;;;;;;5014775;28;88106;-71
2022/05/21 14:44:00;;;;;;;10.90;2.80;;;;;;;;;;5014825;28;88799;-71
2022/05/21 14:49:12;;;;;;;11.52;2.60;;;;;;;;;;5015447;28;88054;-72
2022/05/21 14:54:25;;;;;;;14.20;2.42;;;;;;;;;;5016865;28;89106;-72
2022/05/21 14:56:52;;;;;;;10.32;2.10;;;;;;;;;;5016231;28;88418;-72
2022/05/21 14:59:18;;;;;;;11.93;2.20;;;;;;;;;;4997346;28;88827;-72
2022/05/21 15:01:45;;;;;;;8.88;2.00;;;;;;;;;;4998667;28;88136;-71
2022/05/21 15:04:11;;;;;;;17.48;3.17;;;;;;;;;;5016520;28;88868;-71
2022/05/21 15:06:38;;;;;;;15.88;3.10;;;;;;;;;;5016294;28;89705;-71
2022/05/21 15:09:12;;;;;;;17.45;2.47;;;;;;;;;;5015105;28;88134;-71
2022/05/21 15:11:38;;;;;;;11.48;2.55;;;;;;;;;;4999446;28;88798;-71
2022/05/21 15:14:05;;;;;;;10.63;2.88;;;;;;;;;;5002155;28;89289;-71
2022/05/21 15:16:31;;;;;;;11.82;2.60;;;;;;;;;;5001859;28;90020;-72
2022/05/21 15:18:59;;;;;;;16.50;2.85;;;;;;;;;;5018400;28;88964;-72
2022/05/21 15:21:28;;;;;;;15.95;3.03;;;;;;;;;;5021771;28;89066;-71
2022/05/21 15:23:57;;;;;;;11.82;2.45;;;;;;;;;;5019856;28;87996;-71